Air Resources Laboratory banner image
Air Resources Laboratory web site National Oceanic and Atmospheric Administration (NOAA)

hi metar


PHBK 151456Z AUTO 02014G22KT 10SM FEW050 21/13 A2999 RMK AO2 SLP158 T02060133
 56017=
PHHI 151456Z AUTO 35008KT 10SM BKN045 17/11 A3000 RMK AO2 SLP154 T01710107
 56013 FZRANO $=
PHJR 151449Z AUTO 00000KT 10SM SCT007 BKN055 17/11 A2999=
PHKO 151453Z AUTO 03016KT 10SM SCT070 21/09 A2988 RMK AO2 SLP119 T02060089
 55008 TSNO=
PHLI 151453Z AUTO 03019KT 10SM FEW033 SCT047 BKN060 19/13 A3002 RMK AO2 PK WND
 02031/1409 SLP162 T01890133 56013 TSNO $=
PHMK 151454Z AUTO 36017G27KT 10SM FEW030 FEW050 SCT065 19/13 A2995 RMK AO2 PK
 WND 01031/1355 RAB1358E10 SLP146 P0000 60000 T01890133 55013 TSNO $=
PHNG 151457Z 03018G24KT 10SM SCT028 BKN055 22/13 A2995 RMK AO2 PK WND
 02026/1432 SLP135 T02220128 56015 $=
PHNL 151453Z 36005KT 10SM FEW026 BKN050 22/09 A2997 RMK AO2 SLP147 T02170094
 56013=
PHNY 151456Z AUTO 02019G28KT 10SM FEW019 BKN050 OVC060 16/13 A2996 RMK AO2 PK
 WND 02028/1451 SLP134 60000 T01610128 55006=
PHOG 151454Z AUTO 03017G23KT 10SM OVC060 19/14 A2993 RMK AO2 PK WND 03031/1424
 RAB30E43 SLP140 P0000 60000 T01940139 56013 TSNO=
PHSF 151456Z AUTO 00000KT 10SM BKN010 04/03 A3010 RMK AO2 SLP103 WND DATA ESTMD
 T00430033 57011 $=
PHTO 151453Z AUTO 03015G21KT 10SM SCT040 BKN049 OVC070 20/14 A2991 RMK AO2 PK
 WND 03026/1410 WSHFT 1358 SLP127 T02000144 55009 TSNO=
PMDY 151456Z AUTO 17013KT 10SM CLR 22/19 A3012 RMK AO2 SLP199 T02220194 56007=